createdAt,value
2023-02-11T00:01:22.240Z,13.52
2023-02-11T00:03:50.157Z,17.88
2023-02-11T00:06:18.658Z,16.73
2023-02-11T00:08:48.414Z,16.48
2023-02-11T00:11:17.767Z,17.25
2023-02-11T00:13:46.255Z,16.40
2023-02-11T00:16:16.436Z,18.00
2023-02-11T00:18:44.510Z,17.05
2023-02-11T00:21:14.221Z,17.05
2023-02-11T00:23:42.138Z,18.10
2023-02-11T00:26:14.959Z,18.00
2023-02-11T00:28:44.668Z,15.98
2023-02-11T00:31:13.395Z,15.82
2023-02-11T00:33:42.126Z,15.85
2023-02-11T00:36:13.025Z,16.02
2023-02-11T00:38:40.944Z,16.38
2023-02-11T00:41:08.790Z,17.13
2023-02-11T00:43:38.333Z,17.00
2023-02-11T00:46:06.592Z,16.80
2023-02-11T00:48:34.653Z,16.85
2023-02-11T00:51:04.093Z,17.35
2023-02-11T00:53:32.053Z,15.90
2023-02-11T00:56:01.011Z,17.00
2023-02-11T00:58:29.425Z,16.73
2023-02-11T01:00:58.977Z,15.85
2023-02-11T01:03:27.311Z,16.42
2023-02-11T01:05:56.308Z,15.52
2023-02-11T01:08:24.378Z,16.15
2023-02-11T01:10:57.113Z,16.60
2023-02-11T01:13:25.679Z,16.20
2023-02-11T01:15:55.512Z,17.25
2023-02-11T01:18:26.122Z,13.52
2023-02-11T01:20:54.397Z,16.42
2023-02-11T01:23:22.806Z,16.80
2023-02-11T01:25:51.302Z,15.05
2023-02-11T01:28:19.753Z,15.82
2023-02-11T01:30:48.037Z,16.17
2023-02-11T01:33:16.356Z,16.20
2023-02-11T01:35:45.805Z,16.55
2023-02-11T01:38:17.873Z,15.43
2023-02-11T01:40:51.409Z,15.88
2023-02-11T01:43:19.387Z,16.15
2023-02-11T01:46:18.467Z,15.68
2023-02-11T01:48:49.770Z,17.45
2023-02-11T01:51:24.568Z,15.65
2023-02-11T01:54:11.394Z,16.13
2023-02-11T01:57:01.810Z,16.83
2023-02-11T01:59:34.040Z,17.17
2023-02-11T02:02:07.064Z,15.68
2023-02-11T02:04:42.601Z,15.38
2023-02-11T02:07:18.471Z,16.30
2023-02-11T02:09:53.664Z,16.58
2023-02-11T02:14:49.334Z,15.77
2023-02-11T02:17:29.605Z,15.98
2023-02-11T02:20:25.905Z,17.02
2023-02-11T02:23:25.211Z,14.93
2023-02-11T02:26:26.640Z,15.00
2023-02-11T02:29:30.863Z,15.07
2023-02-11T02:32:27.230Z,15.40
2023-02-11T02:35:03.213Z,15.57
2023-02-11T02:37:36.956Z,14.70
2023-02-11T02:40:10.606Z,15.65
2023-02-11T02:42:41.140Z,14.98
2023-02-11T02:45:12.076Z,15.63
2023-02-11T02:47:41.258Z,15.73
2023-02-11T02:50:10.493Z,14.82
2023-02-11T02:52:47.340Z,15.02
2023-02-11T02:55:33.516Z,14.88
2023-02-11T02:58:15.180Z,14.88
2023-02-11T03:00:54.354Z,16.00
2023-02-11T03:03:30.302Z,15.20
2023-02-11T03:06:04.845Z,15.73
2023-02-11T03:08:38.090Z,15.00
2023-02-11T03:11:07.374Z,16.33
2023-02-11T03:13:37.383Z,16.45
2023-02-11T03:16:10.449Z,16.05
2023-02-11T03:18:43.285Z,15.43
2023-02-11T03:21:12.098Z,15.95
2023-02-11T03:23:42.969Z,15.48
2023-02-11T03:26:17.417Z,14.85
2023-02-11T03:28:55.972Z,15.75
2023-02-11T03:31:42.622Z,15.63
2023-02-11T03:34:16.788Z,17.55
2023-02-11T03:36:49.224Z,14.90
2023-02-11T03:39:22.055Z,15.95
2023-02-11T03:41:52.203Z,16.80
2023-02-11T03:44:21.568Z,15.38
2023-02-11T03:46:51.717Z,15.43
2023-02-11T03:49:24.021Z,15.13
2023-02-11T03:51:54.346Z,15.52
2023-02-11T03:54:27.689Z,15.85
2023-02-11T03:56:58.850Z,16.33
2023-02-11T03:59:27.086Z,16.02
2023-02-11T04:01:54.984Z,15.60
2023-02-11T04:04:24.171Z,16.02
2023-02-11T04:06:52.095Z,16.58
2023-02-11T04:09:19.883Z,16.50
2023-02-11T04:11:47.692Z,15.38
2023-02-11T04:14:15.469Z,14.32
2023-02-11T04:16:43.377Z,15.30
2023-02-11T04:19:11.245Z,14.52
2023-02-11T04:21:40.426Z,14.02
2023-02-11T04:24:08.362Z,15.82
2023-02-11T04:26:36.146Z,13.75
2023-02-11T04:29:04.004Z,16.63
2023-02-11T04:31:31.811Z,16.48
2023-02-11T04:33:59.625Z,15.27
2023-02-11T04:36:27.474Z,15.68
2023-02-11T04:38:56.575Z,14.70
2023-02-11T04:41:24.378Z,15.25
2023-02-11T04:43:52.138Z,15.32
2023-02-11T04:46:20.003Z,16.27
2023-02-11T04:48:47.835Z,16.50
2023-02-11T04:51:15.761Z,16.63
2023-02-11T04:53:43.787Z,15.80
2023-02-11T04:56:12.972Z,14.77
2023-02-11T04:58:40.822Z,16.45
2023-02-11T05:01:09.105Z,17.23
2023-02-11T05:03:37.032Z,17.70
2023-02-11T05:06:05.861Z,17.23
2023-02-11T05:08:33.767Z,17.35
2023-02-11T05:11:02.153Z,17.42
2023-02-11T05:13:31.950Z,17.40
2023-02-11T05:16:00.212Z,17.30
2023-02-11T05:18:28.008Z,18.45
2023-02-11T05:20:55.802Z,17.38
2023-02-11T05:23:23.576Z,17.17
2023-02-11T05:25:51.599Z,17.42
2023-02-11T05:28:19.844Z,17.45
2023-02-11T05:30:49.341Z,16.55
2023-02-11T05:33:17.256Z,17.38
2023-02-11T05:35:45.199Z,16.05
2023-02-11T05:38:13.051Z,17.33
2023-02-11T05:40:40.898Z,16.65
2023-02-11T05:43:08.658Z,19.23
2023-02-11T05:45:36.484Z,17.35
2023-02-11T05:48:06.007Z,16.58
2023-02-11T05:50:33.775Z,16.88
2023-02-11T05:53:01.646Z,16.15
2023-02-11T05:55:29.571Z,18.67
2023-02-11T05:57:57.376Z,17.63
2023-02-11T06:00:25.756Z,17.20
2023-02-11T06:02:54.007Z,16.05
2023-02-11T06:05:23.201Z,15.43
2023-02-11T06:07:51.124Z,17.20
2023-02-11T06:10:19.121Z,24.23
2023-02-11T06:12:46.927Z,17.75
2023-02-11T06:15:14.793Z,18.85
2023-02-11T06:17:42.615Z,17.75
2023-02-11T06:20:11.546Z,16.65
2023-02-11T06:22:40.840Z,15.02
2023-02-11T06:25:08.982Z,17.40
2023-02-11T06:27:36.862Z,15.25
2023-02-11T06:30:05.152Z,16.98
2023-02-11T06:32:43.955Z,16.08
2023-02-11T06:35:13.103Z,16.75
2023-02-11T06:37:42.841Z,16.08
2023-02-11T06:40:11.101Z,17.02
2023-02-11T06:42:39.585Z,18.70
2023-02-11T06:45:09.453Z,16.73
2023-02-11T06:47:37.434Z,16.58
2023-02-11T06:50:06.028Z,15.70
2023-02-11T06:52:33.927Z,16.98
2023-02-11T06:55:03.084Z,16.80
2023-02-11T06:57:31.676Z,17.13
2023-02-11T06:59:59.549Z,16.90
2023-02-11T07:02:27.572Z,17.10
2023-02-11T07:04:55.655Z,15.90
2023-02-11T07:07:23.523Z,17.27
2023-02-11T07:09:51.398Z,16.20
2023-02-11T07:12:20.575Z,15.50
2023-02-11T07:14:48.398Z,16.05
2023-02-11T07:17:16.215Z,16.88
2023-02-11T07:19:44.049Z,18.08
2023-02-11T07:22:11.918Z,15.55
2023-02-11T07:24:39.690Z,16.65
2023-02-11T07:27:07.689Z,15.35
2023-02-11T07:29:36.861Z,16.92
2023-02-11T07:32:04.826Z,14.43
2023-02-11T07:34:33.094Z,16.83
2023-02-11T07:37:00.934Z,16.52
2023-02-11T07:39:29.473Z,15.57
2023-02-11T07:41:57.731Z,15.48
2023-02-11T07:44:25.969Z,16.83
2023-02-11T07:46:55.255Z,16.85
2023-02-11T07:49:23.220Z,16.48
2023-02-11T07:51:51.486Z,15.57
2023-02-11T07:54:19.383Z,14.80
2023-02-11T07:56:47.258Z,16.20
2023-02-11T07:59:15.095Z,15.57
2023-02-11T08:01:42.976Z,16.13
2023-02-11T08:04:12.721Z,16.20
2023-02-11T08:06:43.473Z,15.80
2023-02-11T08:09:15.594Z,16.45
2023-02-11T08:11:43.702Z,16.77
2023-02-11T08:14:12.374Z,16.67
2023-02-11T08:16:41.138Z,18.02
2023-02-11T08:19:13.759Z,18.50
2023-02-11T08:21:41.997Z,16.08
2023-02-11T08:24:10.565Z,16.95
2023-02-11T08:26:38.879Z,17.13
2023-02-11T08:29:10.802Z,16.95
2023-02-11T08:31:40.909Z,17.40
2023-02-11T08:34:10.603Z,16.23
2023-02-11T08:36:41.012Z,17.20
2023-02-11T08:39:19.197Z,16.58
2023-02-11T08:41:48.750Z,16.17
2023-02-11T08:44:17.062Z,17.98
2023-02-11T08:46:44.901Z,16.35
2023-02-11T08:49:12.730Z,16.90
2023-02-11T08:51:41.970Z,16.55
2023-02-11T08:54:10.419Z,16.52
2023-02-11T08:56:39.435Z,17.50
2023-02-11T08:59:09.171Z,16.67
2023-02-11T09:01:37.449Z,17.98
2023-02-11T09:04:05.482Z,16.60
2023-02-11T09:06:33.456Z,16.73
2023-02-11T09:09:02.712Z,16.25
2023-02-11T09:11:32.669Z,17.92
2023-02-11T09:14:00.982Z,15.90
2023-02-11T09:16:31.252Z,16.70
2023-02-11T09:19:01.057Z,16.63
2023-02-11T09:21:29.814Z,17.83
2023-02-11T09:23:58.166Z,16.45
2023-02-11T09:26:29.415Z,17.00
2023-02-11T09:28:57.774Z,16.55
2023-02-11T09:31:29.893Z,15.85
2023-02-11T09:34:00.446Z,15.85
2023-02-11T09:36:30.203Z,17.63
2023-02-11T09:39:00.687Z,16.55
2023-02-11T09:41:55.121Z,15.98
2023-02-11T09:44:25.962Z,16.40
2023-02-11T09:46:57.884Z,15.55
2023-02-11T09:49:32.468Z,15.50
2023-02-11T09:52:06.092Z,15.93
2023-02-11T09:54:38.700Z,16.52
2023-02-11T09:57:19.654Z,15.77
2023-02-11T09:59:54.681Z,15.00
2023-02-11T10:02:28.476Z,15.02
2023-02-11T10:05:25.082Z,15.68
2023-02-11T10:07:59.753Z,16.67
2023-02-11T10:10:41.959Z,15.02
2023-02-11T10:13:36.955Z,16.45
2023-02-11T10:16:16.250Z,14.75
2023-02-11T10:18:59.561Z,15.68
2023-02-11T10:21:34.043Z,16.00
2023-02-11T10:24:05.808Z,14.27
2023-02-11T10:26:35.509Z,14.10
2023-02-11T10:29:14.940Z,15.00
2023-02-11T10:31:45.145Z,15.05
2023-02-11T10:34:15.207Z,14.60
2023-02-11T10:36:44.691Z,15.05
2023-02-11T10:39:15.469Z,15.10
2023-02-11T10:41:45.562Z,14.65
2023-02-11T10:44:25.624Z,15.07
2023-02-11T10:46:54.625Z,13.52
2023-02-11T10:49:37.922Z,14.45
2023-02-11T10:52:20.081Z,13.63
2023-02-11T10:55:03.472Z,14.73
2023-02-11T10:57:37.415Z,14.00
2023-02-11T11:00:23.833Z,12.95
2023-02-11T11:02:57.402Z,13.05
2023-02-11T11:05:32.318Z,13.65
2023-02-11T11:08:03.077Z,12.10
2023-02-11T11:10:43.314Z,13.10
2023-02-11T11:13:36.616Z,12.02
2023-02-11T11:16:23.091Z,10.93
2023-02-11T11:18:52.517Z,12.40
2023-02-11T11:21:24.894Z,11.80
2023-02-11T11:23:58.880Z,10.85
2023-02-11T11:26:28.402Z,10.93
2023-02-11T11:29:03.588Z,11.32
2023-02-11T11:34:16.509Z,10.70
2023-02-11T11:36:44.863Z,11.13
2023-02-11T11:39:21.543Z,11.68
2023-02-11T11:41:52.525Z,11.68
2023-02-11T11:44:27.777Z,10.40
2023-02-11T11:49:40.446Z,10.80
2023-02-11T11:52:18.927Z,10.80
2023-02-11T11:54:54.570Z,10.38
2023-02-11T11:57:28.689Z,10.38
2023-02-11T11:59:58.455Z,10.75
2023-02-11T12:03:18.569Z,10.63
2023-02-11T12:05:56.021Z,10.70
2023-02-11T12:08:36.281Z,10.95
2023-02-11T12:11:13.377Z,10.77
2023-02-11T12:14:06.469Z,10.65
2023-02-11T12:16:45.486Z,10.95
2023-02-11T12:19:40.713Z,10.30
2023-02-11T12:22:13.939Z,11.85
2023-02-11T12:24:57.489Z,10.52
2023-02-11T12:27:40.194Z,10.52
2023-02-11T12:30:23.635Z,11.00
2023-02-11T12:33:03.198Z,10.15
2023-02-11T12:35:40.025Z,10.50
2023-02-11T12:38:29.106Z,11.35
2023-02-11T12:41:10.688Z,10.32
2023-02-11T12:43:40.179Z,10.32
2023-02-11T12:46:42.298Z,9.95
2023-02-11T12:49:30.080Z,9.77
2023-02-11T12:52:15.671Z,10.32
2023-02-11T12:54:52.687Z,10.27
2023-02-11T12:57:24.275Z,10.00
2023-02-11T12:59:59.402Z,11.40
2023-02-11T13:02:37.382Z,10.27
2023-02-11T13:05:14.193Z,9.88
2023-02-11T13:07:45.996Z,11.10
2023-02-11T13:10:26.989Z,9.50
2023-02-11T13:13:14.547Z,10.13
2023-02-11T13:15:44.068Z,10.93
2023-02-11T13:18:25.703Z,9.60
2023-02-11T13:21:00.767Z,10.13
2023-02-11T13:23:42.839Z,9.85
2023-02-11T13:26:20.158Z,9.13
2023-02-11T13:28:53.915Z,9.07
2023-02-11T13:31:26.735Z,9.18
2023-02-11T13:33:54.806Z,9.60
2023-02-11T13:36:25.973Z,9.15
2023-02-11T13:38:57.674Z,9.68
2023-02-11T13:41:30.475Z,10.48
2023-02-11T13:44:04.727Z,10.48
2023-02-11T13:46:54.163Z,9.57
2023-02-11T13:49:25.609Z,9.75
2023-02-11T13:51:55.446Z,9.25
2023-02-11T13:54:31.569Z,9.38
2023-02-11T13:57:36.112Z,9.70
2023-02-11T14:00:23.560Z,9.98
2023-02-11T14:03:40.225Z,9.23
2023-02-11T14:06:34.709Z,10.13
2023-02-11T14:09:27.699Z,10.40
2023-02-11T14:12:17.380Z,11.35
2023-02-11T14:15:19.135Z,10.25
2023-02-11T14:17:47.193Z,9.93
2023-02-11T14:20:45.343Z,10.23
2023-02-11T14:23:27.694Z,9.57
2023-02-11T14:26:10.192Z,10.90
2023-02-11T14:28:39.698Z,10.23
2023-02-11T14:31:13.551Z,11.25
2023-02-11T14:34:08.905Z,10.45
2023-02-11T14:36:52.673Z,10.83
2023-02-11T14:39:33.624Z,11.40
2023-02-11T14:42:03.696Z,11.05
2023-02-11T14:44:34.057Z,11.57
2023-02-11T14:47:04.116Z,11.77
2023-02-11T14:49:35.657Z,12.40
2023-02-11T14:52:17.070Z,11.90
2023-02-11T14:54:46.065Z,11.00
2023-02-11T14:57:16.209Z,11.48
2023-02-11T14:59:58.283Z,11.93
2023-02-11T15:02:31.573Z,11.93
2023-02-11T15:05:16.088Z,11.48
2023-02-11T15:07:49.455Z,11.10
2023-02-11T15:10:22.048Z,11.35
2023-02-11T15:12:50.663Z,11.27
2023-02-11T15:15:18.710Z,12.23
2023-02-11T15:17:48.240Z,11.65
2023-02-11T15:20:26.733Z,11.48
2023-02-11T15:22:59.741Z,12.32
2023-02-11T15:25:28.156Z,11.85
2023-02-11T15:27:58.278Z,12.00
2023-02-11T15:30:30.107Z,12.30
2023-02-11T15:33:00.929Z,11.88
2023-02-11T15:35:30.949Z,13.82
2023-02-11T15:37:59.732Z,13.55
2023-02-11T15:40:29.856Z,11.65
2023-02-11T15:42:59.673Z,13.18
2023-02-11T15:45:31.701Z,12.82
2023-02-11T15:48:09.164Z,13.05
2023-02-11T15:50:41.472Z,13.70
2023-02-11T15:53:29.839Z,12.43
2023-02-11T15:56:04.837Z,12.68
2023-02-11T15:58:37.677Z,12.93
2023-02-11T16:01:06.723Z,12.68
2023-02-11T16:03:36.100Z,12.38
2023-02-11T16:06:22.228Z,13.68
2023-02-11T16:09:00.172Z,13.95
2023-02-11T16:11:33.997Z,12.85
2023-02-11T16:14:23.132Z,14.80
2023-02-11T16:17:01.931Z,13.45
2023-02-11T16:19:39.798Z,14.43
2023-02-11T16:22:23.656Z,14.70
2023-02-11T16:24:56.661Z,13.23
2023-02-11T16:27:36.411Z,14.00
2023-02-11T16:30:29.830Z,13.90
2023-02-11T16:33:07.835Z,13.55
2023-02-11T16:35:46.326Z,13.23
2023-02-11T16:38:24.575Z,14.57
2023-02-11T16:41:03.010Z,13.32
2023-02-11T16:43:43.104Z,13.98
2023-02-11T16:46:19.641Z,14.07
2023-02-11T16:48:56.092Z,15.20
2023-02-11T16:51:32.502Z,13.35
2023-02-11T16:54:07.135Z,13.40
2023-02-11T16:56:42.139Z,14.75
2023-02-11T16:59:21.518Z,15.13
2023-02-11T17:02:04.537Z,13.93
2023-02-11T17:04:42.980Z,16.00
2023-02-11T17:07:27.036Z,14.40
2023-02-11T17:10:08.209Z,13.77
2023-02-11T17:13:08.488Z,14.23
2023-02-11T17:15:47.305Z,14.57
2023-02-11T17:18:31.216Z,13.40
2023-02-11T17:21:13.915Z,13.70
2023-02-11T17:23:52.444Z,12.95
2023-02-11T17:26:31.618Z,13.13
2023-02-11T17:29:07.364Z,12.98
2023-02-11T17:31:44.870Z,12.60
2023-02-11T17:34:23.159Z,12.43
2023-02-11T17:37:02.057Z,13.98
2023-02-11T17:39:37.808Z,13.98
2023-02-11T17:42:16.786Z,14.10
2023-02-11T17:44:51.101Z,14.95
2023-02-11T17:47:29.068Z,16.27
2023-02-11T17:50:11.324Z,12.45
2023-02-11T17:52:46.285Z,21.15
2023-02-11T17:55:22.733Z,13.40
2023-02-11T17:58:14.408Z,13.43
2023-02-11T18:00:51.817Z,11.35
2023-02-11T18:03:29.444Z,12.85
2023-02-11T18:06:09.620Z,12.70
2023-02-11T18:08:45.543Z,12.40
2023-02-11T18:11:26.324Z,12.63
2023-02-11T18:13:59.777Z,11.73
2023-02-11T18:16:36.470Z,13.05
2023-02-11T18:19:10.602Z,12.25
2023-02-11T18:21:50.571Z,11.43
2023-02-11T18:24:25.197Z,13.05
2023-02-11T18:27:00.282Z,12.37
2023-02-11T18:29:33.519Z,12.10
2023-02-11T18:32:03.105Z,11.57
2023-02-11T18:34:31.712Z,11.20
2023-02-11T18:37:07.205Z,10.50
2023-02-11T18:39:41.025Z,11.95
2023-02-11T18:42:15.644Z,10.27
2023-02-11T18:44:51.621Z,11.25
2023-02-11T18:47:24.747Z,11.35
2023-02-11T18:49:58.607Z,11.18
2023-02-11T18:52:33.283Z,12.15
2023-02-11T18:55:09.397Z,12.75
2023-02-11T18:57:44.055Z,11.70
2023-02-11T19:00:27.720Z,13.67
2023-02-11T19:03:05.683Z,11.32
2023-02-11T19:05:46.076Z,12.73
2023-02-11T19:08:23.367Z,12.13
2023-02-11T19:10:56.269Z,10.68
2023-02-11T19:13:36.545Z,12.43
2023-02-11T19:16:14.125Z,11.52
2023-02-11T19:18:46.334Z,12.80
2023-02-11T19:21:14.247Z,13.00
2023-02-11T19:23:43.955Z,12.93
2023-02-11T19:26:15.612Z,13.25
2023-02-11T19:28:47.163Z,13.27
2023-02-11T19:31:22.371Z,13.95
2023-02-11T19:33:52.292Z,14.63
2023-02-11T19:36:23.338Z,16.02
2023-02-11T19:38:53.035Z,13.88
2023-02-11T19:41:22.489Z,14.65
2023-02-11T19:43:52.890Z,12.82
2023-02-11T19:46:21.627Z,12.63
2023-02-11T19:48:49.928Z,13.00
2023-02-11T19:51:18.748Z,14.23
2023-02-11T19:53:47.653Z,13.68
2023-02-11T19:56:17.363Z,12.70
2023-02-11T19:58:46.747Z,14.77
2023-02-11T20:01:18.627Z,14.43
2023-02-11T20:03:50.277Z,14.75
2023-02-11T20:06:23.257Z,14.85
2023-02-11T20:08:57.261Z,13.07
2023-02-11T20:11:28.175Z,13.02
2023-02-11T20:13:56.820Z,15.45
2023-02-11T20:16:44.606Z,15.95
2023-02-11T20:19:17.794Z,15.73
2023-02-11T20:21:47.853Z,17.27
2023-02-11T20:24:16.296Z,15.85
2023-02-11T20:26:45.234Z,15.68
2023-02-11T20:29:13.222Z,15.93
2023-02-11T20:31:43.061Z,15.82
2023-02-11T20:34:11.491Z,14.38
2023-02-11T20:36:40.563Z,15.68
2023-02-11T20:39:09.049Z,15.85
2023-02-11T20:41:39.773Z,16.33
2023-02-11T20:44:11.152Z,16.23
2023-02-11T20:46:40.816Z,17.13
2023-02-11T20:49:13.396Z,16.30
2023-02-11T20:51:42.276Z,17.65
2023-02-11T20:54:13.578Z,17.42
2023-02-11T20:56:41.695Z,15.88
2023-02-11T20:59:10.360Z,15.85
2023-02-11T21:01:41.206Z,16.98
2023-02-11T21:04:14.058Z,16.45
2023-02-11T21:06:44.239Z,15.85
2023-02-11T21:09:13.832Z,17.05
2023-02-11T21:11:42.344Z,16.73
2023-02-11T21:14:11.106Z,16.48
2023-02-11T21:16:39.657Z,17.05
2023-02-11T21:19:08.037Z,17.42
2023-02-11T21:21:38.223Z,16.60
2023-02-11T21:24:07.559Z,16.33
2023-02-11T21:26:36.280Z,16.50
2023-02-11T21:29:04.285Z,16.75
2023-02-11T21:31:34.675Z,17.17
2023-02-11T21:34:03.191Z,16.90
2023-02-11T21:36:31.471Z,18.65
2023-02-11T21:39:01.795Z,20.25
2023-02-11T21:41:29.949Z,15.70
2023-02-11T21:43:58.172Z,16.15
2023-02-11T21:46:26.096Z,17.42
2023-02-11T21:48:54.336Z,18.42
2023-02-11T21:51:24.388Z,17.17
2023-02-11T21:53:55.422Z,17.60
2023-02-11T21:56:26.364Z,16.45
2023-02-11T21:58:55.272Z,17.80
2023-02-11T22:01:25.420Z,16.98
2023-02-11T22:03:53.620Z,21.55
2023-02-11T22:06:23.713Z,20.30
2023-02-11T22:08:51.789Z,18.85
2023-02-11T22:11:20.233Z,19.42
2023-02-11T22:13:49.524Z,17.60
2023-02-11T22:16:18.274Z,19.50
2023-02-11T22:18:46.524Z,18.13
2023-02-11T22:21:17.886Z,16.30
2023-02-11T22:23:46.646Z,18.00
2023-02-11T22:26:17.544Z,18.38
2023-02-11T22:28:45.658Z,17.70
2023-02-11T22:31:16.784Z,17.27
2023-02-11T22:33:46.101Z,18.80
2023-02-11T22:36:17.909Z,17.02
2023-02-11T22:38:46.487Z,18.17
2023-02-11T22:41:15.006Z,17.92
2023-02-11T22:43:44.106Z,18.05
2023-02-11T22:46:15.788Z,16.65
2023-02-11T22:48:44.141Z,16.92
2023-02-11T22:51:14.052Z,18.70
2023-02-11T22:53:43.546Z,17.10
2023-02-11T22:56:15.686Z,16.90
2023-02-11T22:58:43.939Z,18.02
2023-02-11T23:01:12.700Z,17.42
2023-02-11T23:03:42.735Z,17.92
2023-02-11T23:06:11.095Z,18.23
2023-02-11T23:08:40.389Z,19.33
2023-02-11T23:11:10.809Z,19.33
2023-02-11T23:13:41.420Z,20.33
2023-02-11T23:16:11.300Z,19.38
2023-02-11T23:18:42.225Z,21.02
2023-02-11T23:21:12.800Z,20.70
2023-02-11T23:23:40.928Z,18.90
2023-02-11T23:26:11.357Z,19.70
2023-02-11T23:28:39.584Z,18.92
2023-02-11T23:31:15.229Z,18.52
2023-02-11T23:33:44.867Z,18.95
2023-02-11T23:36:13.239Z,19.00
2023-02-11T23:38:41.143Z,19.27
2023-02-11T23:41:09.105Z,18.00
2023-02-11T23:43:37.144Z,18.15
2023-02-11T23:46:05.590Z,18.15
2023-02-11T23:48:36.014Z,17.50
2023-02-11T23:51:05.554Z,16.80
2023-02-11T23:53:33.455Z,19.05
2023-02-11T23:56:01.277Z,17.58
2023-02-11T23:58:29.360Z,17.42
